Time;durP1;ratioP1;P1;durP2;ratioP2;P2;SDS_P1;SDS_P2;PMS_P1;PMS_P2;Temp;Humidity;BMP_temperature;BMP_pressure;BME280_temperature;BME280_humidity;BME280_pressure;Samples;Min_cycle;Max_cycle;Signal;HPM_P1;HPM_P2
2023/01/09 00:01:18;;;;;;;;;;;;;;;11.43;58.51;98455.69;4949383;28;6812;-73
2023/01/09 00:03:44;;;;;;;;;;;;;;;11.48;58.63;98438.63;4945951;28;7325;-73
2023/01/09 00:06:10;;;;;;;;;;;;;;;11.52;58.77;98442.97;4974746;28;6952;-73
2023/01/09 00:08:36;;;;;;;;;;;;;;;11.53;59.22;98446.38;4977090;28;6772;-73
2023/01/09 00:11:01;;;;;;;;;;;;;;;11.50;58.79;98434.41;4960408;28;6924;-73
2023/01/09 00:13:27;;;;;;;;;;;;;;;11.50;58.86;98443.78;4992143;28;7253;-74
2023/01/09 00:15:53;;;;;;;;;;;;;;;11.46;58.80;98445.44;4962764;28;6860;-74
2023/01/09 00:18:18;;;;;;;;;;;;;;;11.47;58.75;98447.16;4939260;28;6988;-73
2023/01/09 00:20:44;;;;;;;;;;;;;;;11.47;58.97;98451.44;4959540;28;6776;-73
2023/01/09 00:23:10;;;;;;;;;;;;;;;11.50;58.32;98460.06;4960906;28;6776;-73
2023/01/09 00:25:35;;;;;;;;;;;;;;;11.51;58.40;98455.75;4952468;28;6788;-74
2023/01/09 00:28:01;;;;;;;;;;;;;;;11.50;58.46;98449.78;4952239;28;7019;-74
2023/01/09 00:30:27;;;;;;;;;;;;;;;11.50;58.01;98456.59;4974110;28;6783;-73
2023/01/09 00:32:54;;;;;;;;;;;;;;;11.48;58.22;98455.72;4977400;28;6783;-73
2023/01/09 00:35:24;;;;;;;;;;;;;;;11.47;58.48;98454.84;4967135;28;6953;-74
2023/01/09 00:37:49;;;;;;;;;;;;;;;11.47;58.42;98464.28;4960357;28;6800;-73
2023/01/09 00:40:16;;;;;;;;;;;;;;;11.44;57.89;98465.09;4986664;28;6953;-73
2023/01/09 00:42:47;;;;;;;;;;;;;;;11.41;58.24;98454.81;4956303;28;6789;-72
2023/01/09 00:45:27;;;;;;;;;;;;;;;11.38;57.95;98467.56;4957445;28;7027;-73
2023/01/09 00:48:01;;;;;;;;;;;;;;;11.35;58.57;98464.97;4957262;28;7379;-73
2023/01/09 00:50:30;;;;;;;;;;;;;;;11.32;58.69;98470.06;4991086;28;7188;-72
2023/01/09 00:53:11;;;;;;;;;;;;;;;11.29;58.65;98465.75;4963694;28;7013;-73
2023/01/09 00:55:38;;;;;;;;;;;;;;;11.29;58.73;98467.44;4961780;28;6804;-73
2023/01/09 00:58:05;;;;;;;;;;;;;;;11.25;58.43;98463.97;4963453;28;7210;-74
2023/01/09 01:00:30;;;;;;;;;;;;;;;11.24;58.64;98465.69;4965583;28;7156;-72
2023/01/09 01:02:56;;;;;;;;;;;;;;;11.24;58.53;98468.25;4932590;28;7043;-73
2023/01/09 01:08:16;;;;;;;;;;;;;;;11.20;58.48;98475.88;4936731;28;6805;-73
2023/01/09 01:10:44;;;;;;;;;;;;;;;11.17;58.44;98476.69;4970634;28;6799;-72
2023/01/09 01:13:10;;;;;;;;;;;;;;;11.16;58.04;98484.38;4928175;28;7256;-73
2023/01/09 01:15:42;;;;;;;;;;;;;;;11.13;58.11;98484.31;4956665;28;6975;-73
2023/01/09 01:18:10;;;;;;;;;;;;;;;11.09;58.18;98493.66;4970017;28;7194;-73
2023/01/09 01:20:40;;;;;;;;;;;;;;;11.07;57.87;98495.34;4937169;28;6984;-74
2023/01/09 01:23:06;;;;;;;;;;;;;;;11.03;58.12;98491.00;4944504;28;6867;-73
2023/01/09 01:25:37;;;;;;;;;;;;;;;10.98;58.10;98496.91;4945983;28;7017;-73
2023/01/09 01:28:02;;;;;;;;;;;;;;;10.95;58.52;98496.88;4941046;28;7225;-73
2023/01/09 01:30:30;;;;;;;;;;;;;;;10.90;58.36;98501.03;4955052;28;8421;-73
2023/01/09 01:32:55;;;;;;;;;;;;;;;10.87;58.58;98502.72;4960390;28;6874;-74
2023/01/09 01:35:21;;;;;;;;;;;;;;;10.84;58.34;98504.38;4960326;28;6787;-74
2023/01/09 01:37:48;;;;;;;;;;;;;;;10.85;58.67;98500.13;4976979;28;6982;-73
2023/01/09 01:40:15;;;;;;;;;;;;;;;10.88;58.73;98507.00;4976940;28;6976;-73
2023/01/09 01:42:51;;;;;;;;;;;;;;;10.94;59.02;98507.09;4964340;28;6966;-73
2023/01/09 01:45:19;;;;;;;;;;;;;;;11.01;59.01;98514.03;4961207;28;6983;-74
2023/01/09 01:47:58;;;;;;;;;;;;;;;11.05;58.61;98512.41;4957635;28;7393;-74
2023/01/09 01:50:43;;;;;;;;;;;;;;;11.04;58.12;98505.53;4962942;28;6808;-74
2023/01/09 01:53:37;;;;;;;;;;;;;;;10.99;58.21;98508.03;4975207;28;7373;-73
2023/01/09 01:56:21;;;;;;;;;;;;;;;10.97;58.20;98514.84;4949187;28;6791;-73
2023/01/09 01:59:03;;;;;;;;;;;;;;;10.94;58.00;98507.09;4955702;28;7063;-73
2023/01/09 02:01:30;;;;;;;;;;;;;;;10.89;57.85;98514.69;4960847;28;6884;-73
2023/01/09 02:04:00;;;;;;;;;;;;;;;10.83;58.09;98515.47;4962553;28;6792;-74
2023/01/09 02:06:28;;;;;;;;;;;;;;;10.81;58.21;98526.53;4970645;28;6977;-73
2023/01/09 02:08:54;;;;;;;;;;;;;;;10.79;58.42;98535.88;4954785;28;6994;-73
2023/01/09 02:11:20;;;;;;;;;;;;;;;10.78;58.46;98535.03;4967950;28;7286;-73
2023/01/09 02:13:47;;;;;;;;;;;;;;;10.77;58.40;98529.88;4973699;28;6799;-73
2023/01/09 02:16:48;;;;;;;;;;;;;;;10.79;58.46;98535.88;4959472;28;6811;-73
2023/01/09 02:19:39;;;;;;;;;;;;;;;10.81;58.85;98537.66;4962551;28;7229;-73
2023/01/09 02:22:44;;;;;;;;;;;;;;;10.87;59.01;98539.44;4974414;28;7006;-74
2023/01/09 02:25:46;;;;;;;;;;;;;;;10.93;58.92;98543.81;4957675;28;7045;-73
2023/01/09 02:28:29;;;;;;;;;;;;;;;10.96;58.44;98544.72;4958358;28;7104;-73
2023/01/09 02:31:39;;;;;;;;;;;;;;;10.96;58.12;98544.72;4957621;28;6820;-73
2023/01/09 02:34:25;;;;;;;;;;;;;;;10.84;58.21;98540.25;4972743;28;6995;-73
2023/01/09 02:37:03;;;;;;;;;;;;;;;10.81;57.73;98540.22;4983914;28;7098;-72
2023/01/09 02:40:04;;;;;;;;;;;;;;;10.77;57.89;98535.00;4963328;28;6828;-73
2023/01/09 02:42:32;;;;;;;;;;;;;;;10.72;57.58;98552.84;4948838;28;6816;-73
2023/01/09 02:44:58;;;;;;;;;;;;;;;10.68;57.71;98554.50;4989906;28;7118;-73
2023/01/09 02:47:23;;;;;;;;;;;;;;;10.63;57.63;98550.13;4949884;28;7193;-73
2023/01/09 02:49:53;;;;;;;;;;;;;;;10.59;57.89;98556.91;4952831;28;6991;-73
2023/01/09 02:52:46;;;;;;;;;;;;;;;10.55;57.36;98552.56;4961830;28;6950;-73
2023/01/09 02:55:39;;;;;;;;;;;;;;;10.52;57.61;98549.94;4959629;28;6824;-73
2023/01/09 02:58:29;;;;;;;;;;;;;;;10.46;58.13;98557.53;4988382;28;6787;-73
2023/01/09 03:01:31;;;;;;;;;;;;;;;10.43;57.87;98553.19;4955847;28;6824;-73
2023/01/09 03:04:19;;;;;;;;;;;;;;;10.42;57.91;98551.47;4970068;28;7029;-74
2023/01/09 03:07:26;;;;;;;;;;;;;;;10.41;58.31;98544.59;4950373;28;7803;-73
2023/01/09 03:10:05;;;;;;;;;;;;;;;10.37;57.85;98546.22;4933026;28;6816;-73
2023/01/09 03:12:32;;;;;;;;;;;;;;;10.37;58.04;98538.53;4956740;28;6872;-73
2023/01/09 03:15:03;;;;;;;;;;;;;;;10.36;57.72;98539.38;4963058;28;7305;-74
2023/01/09 03:17:41;;;;;;;;;;;;;;;10.33;57.58;98536.75;4987180;28;7162;-73
2023/01/09 03:20:11;;;;;;;;;;;;;;;10.34;57.47;98541.06;4977259;28;7064;-74
2023/01/09 03:22:45;;;;;;;;;;;;;;;10.31;57.65;98547.81;4941905;28;6989;-74
2023/01/09 03:25:11;;;;;;;;;;;;;;;10.31;57.65;98555.50;4945907;28;6993;-73
2023/01/09 03:27:37;;;;;;;;;;;;;;;10.28;57.82;98556.28;4963302;28;6990;-72
2023/01/09 03:30:04;;;;;;;;;;;;;;;10.25;57.39;98546.84;4958362;28;7218;-72
2023/01/09 03:32:29;;;;;;;;;;;;;;;10.21;57.59;98546.75;4955508;28;6989;-72
2023/01/09 03:34:55;;;;;;;;;;;;;;;10.18;57.89;98545.00;4956767;28;6806;-72
2023/01/09 03:37:21;;;;;;;;;;;;;;;10.15;57.27;98542.38;4975779;28;6968;-72
2023/01/09 03:39:46;;;;;;;;;;;;;;;10.15;57.71;98552.63;4954180;28;6768;-72
2023/01/09 03:42:12;;;;;;;;;;;;;;;10.11;57.12;98544.00;4940571;28;7116;-72
2023/01/09 03:44:38;;;;;;;;;;;;;;;10.09;57.16;98553.38;4954385;28;7899;-72
2023/01/09 03:47:03;;;;;;;;;;;;;;;10.07;57.00;98543.91;4938659;28;7168;-72
2023/01/09 03:49:29;;;;;;;;;;;;;;;10.02;57.59;98548.94;4949332;28;6779;-72
2023/01/09 03:51:55;;;;;;;;;;;;;;;10.05;57.72;98551.59;4952978;28;6832;-72
2023/01/09 03:54:20;;;;;;;;;;;;;;;10.01;57.02;98552.34;4976601;28;6929;-72
2023/01/09 03:56:47;;;;;;;;;;;;;;;9.97;57.23;98558.25;4956305;28;6779;-73
2023/01/09 03:59:12;;;;;;;;;;;;;;;9.97;57.91;98563.34;4954513;28;6784;-72
2023/01/09 04:01:38;;;;;;;;;;;;;;;9.99;57.28;98564.25;4956655;28;6835;-73
2023/01/09 04:04:04;;;;;;;;;;;;;;;10.04;57.39;98580.53;4957962;28;6971;-73
2023/01/09 04:06:29;;;;;;;;;;;;;;;10.07;57.60;98567.84;4980860;28;6835;-73
2023/01/09 04:08:55;;;;;;;;;;;;;;;10.12;57.37;98568.78;4986684;28;7040;-73
2023/01/09 04:11:21;;;;;;;;;;;;;;;10.18;57.98;98572.31;4972253;28;7007;-73
2023/01/09 04:13:47;;;;;;;;;;;;;;;10.26;57.65;98573.31;4958748;28;6796;-72
2023/01/09 04:16:12;;;;;;;;;;;;;;;10.33;57.99;98582.00;4960297;28;7044;-73
2023/01/09 04:18:38;;;;;;;;;;;;;;;10.37;57.72;98582.06;4985956;28;7707;-72
2023/01/09 04:21:04;;;;;;;;;;;;;;;10.46;57.15;98570.31;4956340;28;6795;-72
2023/01/09 04:23:29;;;;;;;;;;;;;;;10.49;57.08;98573.81;4974661;28;6768;-72
2023/01/09 04:25:55;;;;;;;;;;;;;;;10.57;57.36;98576.50;4977611;28;8404;-73
2023/01/09 04:28:20;;;;;;;;;;;;;;;10.64;57.14;98567.22;4945659;28;6992;-72
2023/01/09 04:30:47;;;;;;;;;;;;;;;10.72;56.99;98575.91;4975281;28;7208;-73
2023/01/09 04:33:13;;;;;;;;;;;;;;;10.77;57.01;98568.31;4956301;28;6952;-73
2023/01/09 04:35:38;;;;;;;;;;;;;;;10.80;57.06;98578.59;4958886;28;7019;-73
2023/01/09 04:38:04;;;;;;;;;;;;;;;10.87;56.75;98577.91;4961933;28;6788;-73
2023/01/09 04:40:29;;;;;;;;;;;;;;;10.90;56.67;98570.25;4960272;28;6772;-73
2023/01/09 04:42:55;;;;;;;;;;;;;;;10.91;56.73;98569.44;4957467;28;6784;-73
2023/01/09 04:45:21;;;;;;;;;;;;;;;10.94;56.74;98556.66;4990151;28;6972;-73
2023/01/09 04:47:47;;;;;;;;;;;;;;;11.03;56.61;98573.03;4961217;28;6780;-73
2023/01/09 04:50:13;;;;;;;;;;;;;;;11.07;56.55;98561.97;4955433;28;6816;-73
2023/01/09 04:52:39;;;;;;;;;;;;;;;11.07;56.17;98552.59;4960432;28;6792;-73
2023/01/09 04:55:06;;;;;;;;;;;;;;;11.11;56.36;98561.22;4963955;28;6784;-73
2023/01/09 04:57:34;;;;;;;;;;;;;;;11.12;56.37;98560.38;4957260;28;6894;-73
2023/01/09 05:00:00;;;;;;;;;;;;;;;11.16;56.67;98558.72;4959437;28;6792;-73
2023/01/09 05:02:27;;;;;;;;;;;;;;;11.20;56.17;98555.34;4955898;28;7133;-73
2023/01/09 05:04:53;;;;;;;;;;;;;;;11.17;55.66;98553.59;4984170;28;6779;-73
2023/01/09 05:07:18;;;;;;;;;;;;;;;11.19;55.84;98562.19;4960017;28;6891;-73
2023/01/09 05:09:44;;;;;;;;;;;;;;;11.19;56.31;98566.47;4948449;28;7509;-73
2023/01/09 05:12:09;;;;;;;;;;;;;;;11.22;55.87;98563.94;4967275;28;7468;-73
2023/01/09 05:14:35;;;;;;;;;;;;;;;11.27;55.78;98564.88;4974951;28;6780;-73
2023/01/09 05:17:01;;;;;;;;;;;;;;;11.30;55.73;98562.34;4961003;28;6780;-73
2023/01/09 05:19:26;;;;;;;;;;;;;;;11.32;55.92;98575.22;4974918;28;6954;-73
2023/01/09 05:21:52;;;;;;;;;;;;;;;11.33;56.00;98564.97;4973206;28;8626;-73
2023/01/09 05:24:18;;;;;;;;;;;;;;;11.36;55.86;98574.41;4989490;28;7301;-73
2023/01/09 05:26:43;;;;;;;;;;;;;;;11.35;55.34;98576.13;4980228;28;6920;-73
2023/01/09 05:29:09;;;;;;;;;;;;;;;11.37;55.33;98578.69;4961320;28;6772;-73
2023/01/09 05:31:35;;;;;;;;;;;;;;;11.40;55.13;98576.19;4979389;28;6808;-73
2023/01/09 05:34:01;;;;;;;;;;;;;;;11.42;55.47;98579.66;4962421;28;6784;-73
2023/01/09 05:36:27;;;;;;;;;;;;;;;11.45;55.59;98586.53;4960575;28;6769;-73
2023/01/09 05:38:52;;;;;;;;;;;;;;;11.45;55.08;98579.69;4962434;28;7824;-73
2023/01/09 05:41:18;;;;;;;;;;;;;;;11.45;55.22;98584.81;4965344;28;7456;-73
2023/01/09 05:43:43;;;;;;;;;;;;;;;11.46;55.04;98578.00;4964455;28;6979;-73
2023/01/09 05:46:09;;;;;;;;;;;;;;;11.46;55.47;98571.16;4959730;28;6764;-73
2023/01/09 05:48:35;;;;;;;;;;;;;;;11.44;55.08;98590.78;4961244;28;7146;-73
2023/01/09 05:51:00;;;;;;;;;;;;;;;11.41;54.42;98587.31;4966368;28;6877;-73
2023/01/09 05:53:26;;;;;;;;;;;;;;;11.38;54.95;98588.13;4963328;28;6949;-73
2023/01/09 05:55:51;;;;;;;;;;;;;;;11.36;55.12;98592.38;4964808;28;7244;-73
2023/01/09 05:58:17;;;;;;;;;;;;;;;11.34;55.44;98594.91;4979215;28;7084;-73
2023/01/09 06:00:43;;;;;;;;;;;;;;;11.34;55.43;98596.63;4958779;28;6844;-72
2023/01/09 06:03:08;;;;;;;;;;;;;;;11.37;55.36;98594.97;4961737;28;6974;-72
2023/01/09 06:05:34;;;;;;;;;;;;;;;11.42;55.38;98592.47;4964081;28;6844;-72
2023/01/09 06:08:00;;;;;;;;;;;;;;;11.42;55.24;98592.47;4944028;28;6993;-72
2023/01/09 06:10:25;;;;;;;;;;;;;;;11.44;55.23;98584.78;4998425;28;7102;-73
2023/01/09 06:12:53;;;;;;;;;;;;;;;11.48;55.07;98600.25;4959309;28;6962;-72
2023/01/09 06:15:19;;;;;;;;;;;;;;;11.48;54.96;98589.97;4960949;28;6989;-73
2023/01/09 06:17:45;;;;;;;;;;;;;;;11.50;54.92;98585.75;4948695;28;7064;-72
2023/01/09 06:20:11;;;;;;;;;;;;;;;11.48;54.84;98592.53;4963902;28;7175;-72
2023/01/09 06:22:36;;;;;;;;;;;;;;;11.50;54.92;98588.31;4965482;28;6837;-72
2023/01/09 06:25:03;;;;;;;;;;;;;;;11.55;55.10;98580.69;4965053;28;6773;-72
2023/01/09 06:27:28;;;;;;;;;;;;;;;11.55;54.52;98573.00;4962691;28;7173;-72
2023/01/09 06:29:54;;;;;;;;;;;;;;;11.58;54.81;98583.31;4955089;28;6788;-72
2023/01/09 06:32:20;;;;;;;;;;;;;;;11.61;54.56;98582.50;4962817;28;7154;-72
2023/01/09 06:34:45;;;;;;;;;;;;;;;11.66;54.49;98574.00;4962819;28;7174;-73
2023/01/09 06:37:11;;;;;;;;;;;;;;;11.66;54.59;98583.41;4956577;28;6776;-72
2023/01/09 06:39:37;;;;;;;;;;;;;;;11.66;54.25;98591.09;4955395;28;7454;-72
2023/01/09 06:42:03;;;;;;;;;;;;;;;11.71;54.19;98581.78;4955664;28;6772;-72
2023/01/09 06:44:29;;;;;;;;;;;;;;;11.73;53.91;98574.06;4984466;28;7212;-72
2023/01/09 06:46:54;;;;;;;;;;;;;;;11.77;54.50;98581.00;4977051;28;7545;-72
2023/01/09 06:49:23;;;;;;;;;;;;;;;11.77;54.25;98581.84;4958535;28;6768;-72
2023/01/09 06:51:50;;;;;;;;;;;;;;;11.75;54.22;98573.25;4960536;28;7246;-72
2023/01/09 06:54:17;;;;;;;;;;;;;;;11.77;54.26;98581.00;4975325;28;6792;-72
2023/01/09 06:56:43;;;;;;;;;;;;;;;11.76;54.30;98577.56;4982088;28;6804;-72
2023/01/09 06:59:09;;;;;;;;;;;;;;;11.79;54.21;98582.75;4951440;28;7254;-72
2023/01/09 07:01:35;;;;;;;;;;;;;;;11.80;53.69;98574.22;4955215;28;6975;-72
2023/01/09 07:04:01;;;;;;;;;;;;;;;11.81;53.84;98591.34;4958100;28;6937;-72
2023/01/09 07:06:26;;;;;;;;;;;;;;;11.79;54.10;98569.91;4992720;28;6868;-72
2023/01/09 07:08:52;;;;;;;;;;;;;;;11.77;54.15;98581.84;4962701;28;6920;-72
2023/01/09 07:11:18;;;;;;;;;;;;;;;11.78;54.30;98572.44;4974734;28;8570;-72
2023/01/09 07:13:43;;;;;;;;;;;;;;;11.75;54.24;98586.09;4956737;28;7066;-72
2023/01/09 07:16:09;;;;;;;;;;;;;;;11.77;53.63;98589.53;4979660;28;9771;-72
2023/01/09 07:18:35;;;;;;;;;;;;;;;11.79;54.20;98581.88;4984678;28;6951;-72
2023/01/09 07:21:01;;;;;;;;;;;;;;;11.81;53.92;98588.75;4957790;28;7090;-72
2023/01/09 07:23:27;;;;;;;;;;;;;;;11.88;53.76;98584.56;4960480;28;6788;-72
2023/01/09 07:25:53;;;;;;;;;;;;;;;11.90;53.46;98598.28;4963068;28;6824;-72
2023/01/09 07:28:18;;;;;;;;;;;;;;;11.93;53.74;98597.47;4977987;28;7692;-72
2023/01/09 07:30:44;;;;;;;;;;;;;;;11.96;53.68;98597.50;4961838;28;6780;-72
2023/01/09 07:33:09;;;;;;;;;;;;;;;11.94;53.50;98597.50;4958540;28;7753;-72
2023/01/09 07:35:36;;;;;;;;;;;;;;;11.98;53.29;98598.41;4972727;28;6839;-72
2023/01/09 07:38:01;;;;;;;;;;;;;;;11.99;53.14;98595.00;4956633;28;6769;-72
2023/01/09 07:40:27;;;;;;;;;;;;;;;12.00;52.88;98594.16;4955217;28;6780;-72
2023/01/09 07:42:53;;;;;;;;;;;;;;;11.97;53.06;98583.81;4956371;28;6915;-72
2023/01/09 07:45:18;;;;;;;;;;;;;;;11.96;53.11;98605.19;4955189;28;6856;-72
2023/01/09 07:47:44;;;;;;;;;;;;;;;11.98;52.98;98615.50;4956503;28;6886;-72
2023/01/09 07:50:10;;;;;;;;;;;;;;;11.97;53.43;98612.06;4958941;28;6776;-72
2023/01/09 07:52:36;;;;;;;;;;;;;;;11.99;52.81;98620.66;4963640;28;7142;-72
2023/01/09 07:55:02;;;;;;;;;;;;;;;12.00;52.72;98624.09;4973411;28;7939;-72
2023/01/09 07:57:29;;;;;;;;;;;;;;;12.09;53.22;98616.53;4957007;28;6780;-72
2023/01/09 07:59:55;;;;;;;;;;;;;;;12.13;52.69;98625.16;4957560;28;7202;-72
2023/01/09 08:02:21;;;;;;;;;;;;;;;12.12;52.84;98623.44;4980310;28;6943;-72
2023/01/09 08:04:47;;;;;;;;;;;;;;;12.13;52.86;98630.28;4970474;28;6788;-73
2023/01/09 08:07:12;;;;;;;;;;;;;;;12.13;52.65;98631.16;4958451;28;6772;-72
2023/01/09 08:09:38;;;;;;;;;;;;;;;12.13;52.65;98643.13;4978723;28;6991;-73
2023/01/09 08:12:04;;;;;;;;;;;;;;;12.13;52.40;98640.56;4959129;28;6772;-72
2023/01/09 08:14:30;;;;;;;;;;;;;;;12.16;52.27;98648.28;4958844;28;6791;-72
2023/01/09 08:16:55;;;;;;;;;;;;;;;12.21;52.35;98646.66;4957909;28;6768;-72
2023/01/09 08:19:21;;;;;;;;;;;;;;;12.26;52.65;98657.00;4963281;28;7118;-72
2023/01/09 08:21:47;;;;;;;;;;;;;;;12.28;52.89;98637.31;4989225;28;7729;-72
2023/01/09 08:24:12;;;;;;;;;;;;;;;12.32;52.82;98657.94;4963658;28;6836;-72
2023/01/09 08:26:38;;;;;;;;;;;;;;;12.39;52.53;98671.72;4962947;28;6768;-72
2023/01/09 08:29:05;;;;;;;;;;;;;;;12.43;52.57;98676.06;4996580;28;6958;-72
2023/01/09 08:31:30;;;;;;;;;;;;;;;12.50;52.73;98682.97;4959870;28;7028;-72
2023/01/09 08:33:56;;;;;;;;;;;;;;;12.55;52.38;98671.91;4969123;28;6796;-72
2023/01/09 08:36:22;;;;;;;;;;;;;;;12.59;52.96;98682.25;4967314;28;7832;-73
2023/01/09 08:38:47;;;;;;;;;;;;;;;12.61;52.35;98685.69;4962551;28;6780;-72
2023/01/09 08:49:26;;;;;;;;;;;;;;;12.65;52.42;98696.88;4967106;28;7340;-73
2023/01/09 08:51:51;;;;;;;;;;;;;;;12.67;52.29;98702.91;4970243;28;7210;-72
2023/01/09 08:54:17;;;;;;;;;;;;;;;12.66;52.32;98708.03;4961656;28;6991;-72
2023/01/09 08:56:43;;;;;;;;;;;;;;;12.64;52.20;98697.72;4956007;28;6792;-72
2023/01/09 08:59:09;;;;;;;;;;;;;;;12.67;52.68;98715.75;4987733;28;6788;-73
2023/01/09 09:01:35;;;;;;;;;;;;;;;12.74;52.12;98719.25;4992745;28;6975;-73
2023/01/09 09:04:01;;;;;;;;;;;;;;;12.78;52.75;98726.19;4965949;28;7222;-73
2023/01/09 09:06:27;;;;;;;;;;;;;;;12.86;52.53;98732.28;4981789;28;6776;-72
2023/01/09 09:08:52;;;;;;;;;;;;;;;12.95;52.50;98730.66;4960372;28;7070;-73
2023/01/09 09:11:18;;;;;;;;;;;;;;;12.99;51.84;98728.16;4967034;28;6768;-72
2023/01/09 09:13:44;;;;;;;;;;;;;;;13.03;52.36;98732.47;4957635;28;6832;-73
2023/01/09 09:16:09;;;;;;;;;;;;;;;13.08;51.59;98734.22;4964285;28;6767;-72
2023/01/09 09:18:35;;;;;;;;;;;;;;;13.09;51.08;98726.53;4960983;28;6776;-73
2023/01/09 09:21:00;;;;;;;;;;;;;;;13.08;51.92;98752.22;4963161;28;6772;-72
2023/01/09 09:23:26;;;;;;;;;;;;;;;13.09;51.78;98744.53;4960592;28;6950;-72
2023/01/09 09:25:52;;;;;;;;;;;;;;;13.10;51.14;98746.25;4967656;28;6793;-72
2023/01/09 09:28:17;;;;;;;;;;;;;;;13.07;51.60;98753.94;4967640;28;7007;-73
2023/01/09 09:30:43;;;;;;;;;;;;;;;13.04;51.84;98753.91;4959807;28;6796;-72
2023/01/09 09:33:09;;;;;;;;;;;;;;;12.98;51.77;98766.69;4966967;28;6768;-72
2023/01/09 09:35:35;;;;;;;;;;;;;;;12.98;51.98;98770.09;4963073;28;6788;-72
2023/01/09 09:38:03;;;;;;;;;;;;;;;12.99;51.51;98774.44;4983119;28;6796;-73
2023/01/09 09:41:05;;;;;;;;;;;;;;;12.97;51.07;98773.53;4962003;28;6923;-72
2023/01/09 09:44:47;;;;;;;;;;;;;;;12.92;51.63;98777.78;4962049;28;6811;-72
2023/01/09 09:47:47;;;;;;;;;;;;;;;12.88;51.88;98778.56;4951446;28;6816;-73
2023/01/09 09:50:24;;;;;;;;;;;;;;;12.83;52.21;98790.50;4962678;28;6824;-73
2023/01/09 09:53:11;;;;;;;;;;;;;;;12.86;51.33;98785.41;4964780;28;6808;-73
2023/01/09 09:55:40;;;;;;;;;;;;;;;12.88;51.49;98797.44;4988523;28;7149;-72
2023/01/09 09:58:37;;;;;;;;;;;;;;;12.86;51.88;98804.28;4965336;28;6804;-72
2023/01/09 10:01:06;;;;;;;;;;;;;;;12.89;52.23;98808.56;4960041;28;6804;-72
2023/01/09 10:03:50;;;;;;;;;;;;;;;12.87;51.60;98821.41;4960592;28;7055;-72
2023/01/09 10:06:44;;;;;;;;;;;;;;;12.90;51.96;98820.59;4960301;28;6791;-71
2023/01/09 10:09:15;;;;;;;;;;;;;;;12.96;52.09;98824.97;4964800;28;6827;-72
2023/01/09 10:12:02;;;;;;;;;;;;;;;13.04;52.01;98831.06;4960212;28;6800;-72
2023/01/09 10:14:29;;;;;;;;;;;;;;;13.11;50.98;98827.72;4992051;28;7086;-72
2023/01/09 10:16:59;;;;;;;;;;;;;;;13.22;51.87;98826.97;4973803;28;6982;-72
2023/01/09 10:19:52;;;;;;;;;;;;;;;13.29;51.89;98834.81;4958241;28;7375;-72
2023/01/09 10:22:46;;;;;;;;;;;;;;;13.28;50.51;98832.22;4957926;28;6870;-72
2023/01/09 10:25:38;;;;;;;;;;;;;;;13.30;50.95;98839.09;4977872;28;7452;-72
2023/01/09 10:28:46;;;;;;;;;;;;;;;13.33;51.12;98841.69;4985519;28;6796;-72
2023/01/09 10:31:48;;;;;;;;;;;;;;;13.39;51.25;98845.22;4958570;28;7042;-72
2023/01/09 10:34:35;;;;;;;;;;;;;;;13.45;50.96;98832.44;4977080;28;6820;-72
2023/01/09 10:37:09;;;;;;;;;;;;;;;13.43;49.74;98827.25;4961731;28;6947;-72
2023/01/09 10:39:44;;;;;;;;;;;;;;;13.45;49.59;98841.03;4961153;28;6868;-72
2023/01/09 10:42:29;;;;;;;;;;;;;;;13.47;50.45;98844.47;4958509;28;6807;-72
2023/01/09 10:45:07;;;;;;;;;;;;;;;13.50;50.31;98833.34;4957253;28;6807;-72
2023/01/09 10:47:39;;;;;;;;;;;;;;;13.59;49.63;98838.59;4958571;28;6804;-72
2023/01/09 10:50:29;;;;;;;;;;;;;;;13.71;50.28;98849.88;4984359;28;6796;-72
2023/01/09 10:52:55;;;;;;;;;;;;;;;13.77;49.75;98837.06;4967330;28;6884;-72
2023/01/09 10:55:41;;;;;;;;;;;;;;;13.89;49.70;98849.19;4962837;28;6788;-72
2023/01/09 10:58:13;;;;;;;;;;;;;;;14.01;49.44;98857.03;4961555;28;6804;-72
2023/01/09 11:00:40;;;;;;;;;;;;;;;14.14;48.95;98854.56;4960234;28;7024;-72
2023/01/09 11:03:17;;;;;;;;;;;;;;;14.31;48.65;98849.53;4959885;28;6875;-72
2023/01/09 11:05:58;;;;;;;;;;;;;;;14.33;47.72;98853.00;4972751;28;6820;-72
2023/01/09 11:08:41;;;;;;;;;;;;;;;14.27;47.49;98858.97;4960229;28;7158;-72
2023/01/09 11:11:09;;;;;;;;;;;;;;;14.18;47.55;98864.03;4955467;28;7006;-72
2023/01/09 11:13:45;;;;;;;;;;;;;;;14.12;47.94;98877.72;4969688;28;6963;-72
2023/01/09 11:16:20;;;;;;;;;;;;;;;14.04;47.75;98871.63;4975038;28;6815;-72
2023/01/09 11:18:52;;;;;;;;;;;;;;;13.99;48.58;98874.16;4987986;28;6905;-72
2023/01/09 11:21:40;;;;;;;;;;;;;;;14.00;48.28;98886.22;4965102;28;6876;-72
2023/01/09 11:24:18;;;;;;;;;;;;;;;14.20;48.94;98864.94;4960706;28;7215;-72
2023/01/09 11:26:50;;;;;;;;;;;;;;;14.72;48.54;98856.72;4988202;28;7198;-72
2023/01/09 11:29:19;;;;;;;;;;;;;;;15.15;47.09;98870.75;4962582;28;6816;-72
2023/01/09 11:31:58;;;;;;;;;;;;;;;15.17;46.04;98863.03;4974187;28;6967;-72
2023/01/09 11:34:29;;;;;;;;;;;;;;;14.96;45.86;98869.78;4964843;28;6884;-73
2023/01/09 11:37:10;;;;;;;;;;;;;;;14.78;46.20;98883.44;4962520;28;6804;-72
2023/01/09 11:39:44;;;;;;;;;;;;;;;14.58;47.00;98879.84;4964277;28;7003;-72
2023/01/09 11:45:18;;;;;;;;;;;;;;;14.06;46.76;98895.72;4983426;28;6804;-73
2023/01/09 11:47:45;;;;;;;;;;;;;;;13.93;47.64;98899.88;4951747;28;6953;-72
2023/01/09 11:50:23;;;;;;;;;;;;;;;13.79;47.48;98897.16;4955216;28;6804;-72
2023/01/09 11:53:18;;;;;;;;;;;;;;;13.65;48.01;98893.56;4962411;28;6820;-72
2023/01/09 11:55:50;;;;;;;;;;;;;;;13.55;47.85;98902.91;4956368;28;6804;-72
2023/01/09 11:58:20;;;;;;;;;;;;;;;13.47;47.86;98906.25;4961369;28;6876;-72
2023/01/09 12:01:24;;;;;;;;;;;;;;;13.43;48.19;98909.59;4939630;28;7498;-72
2023/01/09 12:03:54;;;;;;;;;;;;;;;13.34;48.68;98905.19;4952745;28;6988;-72
2023/01/09 12:06:28;;;;;;;;;;;;;;;13.27;48.06;98908.50;4954926;28;6907;-72
2023/01/09 12:09:03;;;;;;;;;;;;;;;13.20;48.14;98907.56;4954468;28;6803;-72
2023/01/09 12:11:50;;;;;;;;;;;;;;;13.14;48.23;98907.50;4957959;28;6803;-72
2023/01/09 12:14:41;;;;;;;;;;;;;;;13.16;48.91;98910.97;4973766;28;6919;-72
2023/01/09 12:17:49;;;;;;;;;;;;;;;13.15;49.83;98906.66;4966595;28;6853;-72
2023/01/09 12:20:40;;;;;;;;;;;;;;;13.15;49.26;98906.66;4973915;28;6808;-72
2023/01/09 12:23:25;;;;;;;;;;;;;;;13.24;49.35;98929.06;4957501;28;6796;-72
2023/01/09 12:26:09;;;;;;;;;;;;;;;13.34;49.19;98919.78;4959988;28;6852;-72
2023/01/09 12:29:12;;;;;;;;;;;;;;;13.44;49.81;98929.38;4987080;28;6961;-72
2023/01/09 12:32:31;;;;;;;;;;;;;;;13.52;48.80;98928.59;4961244;28;7224;-72
2023/01/09 12:35:21;;;;;;;;;;;;;;;13.53;49.54;98933.75;4927753;28;6828;-72
2023/01/09 12:38:14;;;;;;;;;;;;;;;13.50;49.75;98940.56;4955329;28;6836;-72
2023/01/09 12:41:02;;;;;;;;;;;;;;;13.47;49.61;98934.53;4957398;28;7122;-72
2023/01/09 12:43:55;;;;;;;;;;;;;;;13.50;48.97;98945.72;4959658;28;7130;-72
2023/01/09 12:46:25;;;;;;;;;;;;;;;13.53;49.21;98943.22;4986475;28;6999;-72
2023/01/09 12:49:14;;;;;;;;;;;;;;;13.53;49.09;98950.94;4983737;28;7417;-72
2023/01/09 12:51:52;;;;;;;;;;;;;;;13.46;48.70;98956.00;4954761;28;6812;-72
2023/01/09 12:54:36;;;;;;;;;;;;;;;13.43;48.99;98958.50;4977852;28;6998;-72
2023/01/09 12:57:41;;;;;;;;;;;;;;;13.40;48.84;98963.59;4966483;28;6868;-72
2023/01/09 13:00:44;;;;;;;;;;;;;;;13.32;48.90;98958.34;4983088;28;7190;-72
2023/01/09 13:03:33;;;;;;;;;;;;;;;13.25;49.66;98971.09;4984953;28;11025;-72
2023/01/09 13:06:04;;;;;;;;;;;;;;;13.21;49.07;98977.91;4959092;28;6886;-72
2023/01/09 13:08:33;;;;;;;;;;;;;;;13.19;49.19;98989.91;4989880;28;7632;-72
2023/01/09 13:11:27;;;;;;;;;;;;;;;13.13;49.16;98982.94;4975145;28;6857;-72
2023/01/09 13:14:19;;;;;;;;;;;;;;;13.07;49.84;98993.16;4965404;28;6804;-72
2023/01/09 13:16:55;;;;;;;;;;;;;;;13.02;49.71;98997.34;4963248;28;6808;-72
2023/01/09 13:19:33;;;;;;;;;;;;;;;12.97;49.53;98989.53;4988071;28;7963;-72
2023/01/09 13:21:59;;;;;;;;;;;;;;;12.94;49.49;98997.22;4987615;28;6804;-72
2023/01/09 13:25:13;;;;;;;;;;;;;;;12.88;49.40;99005.72;4958647;28;6981;-72
2023/01/09 13:27:45;;;;;;;;;;;;;;;12.87;49.32;99010.81;4990183;28;6811;-72
2023/01/09 13:30:11;;;;;;;;;;;;;;;12.89;49.69;99010.00;4988405;28;7055;-72
2023/01/09 13:33:06;;;;;;;;;;;;;;;12.92;49.91;99010.03;4960911;28;6780;-72
2023/01/09 13:35:33;;;;;;;;;;;;;;;12.90;50.44;99016.88;4959453;28;6875;-72
2023/01/09 13:37:59;;;;;;;;;;;;;;;12.89;50.11;99019.41;4961225;28;7016;-72
2023/01/09 13:40:28;;;;;;;;;;;;;;;12.88;49.76;99018.56;4955195;28;6820;-72